Terminal Aerodrome Forecast
Issued by NWS Grand Forks, ND

Home | Current Version | Previous Version | Text Only | Print | Product List | Glossary Off
Versions: 1 2 3 4 5 6 7 8 9 10 11 12 13 14 15 16 17 18 19

000
FTUS43 KFGF 282043 AAA
TAFFAR
TAF AMD
KFAR 282043Z 2821/2918 02010KT P6SM VCSH SCT030 OVC090
      TEMPO 2821/2823 BKN025
     FM290200 36005KT P6SM BKN050
     FM290800 VRB03KT P6SM BKN020
     FM291200 30004KT P6SM BKN025
     FM291500 29007KT P6SM SCT015=

USA.gov is the U.S. government's official web portal to all federal, state and local government web resources and services.